createdAt,value
2018-06-21T00:00:23.669Z,101014.11
2018-06-21T00:02:51.806Z,101010.48
2018-06-21T00:05:20.257Z,101019.90
2018-06-21T00:07:48.425Z,101019.89
2018-06-21T00:10:16.557Z,101017.77
2018-06-21T00:12:44.710Z,101016.41
2018-06-21T00:15:12.821Z,101016.75
2018-06-21T00:17:41.433Z,101020.50
2018-06-21T00:20:09.554Z,101011.98
2018-06-21T00:22:38.005Z,101016.94
2018-06-21T00:25:06.174Z,101021.53
2018-06-21T00:27:34.647Z,101020.34
2018-06-21T00:30:03.098Z,101021.33
2018-06-21T00:32:31.566Z,101019.09
2018-06-21T00:35:00.044Z,101012.45
2018-06-21T00:37:28.365Z,101006.61
2018-06-21T00:39:56.831Z,100997.06
2018-06-21T00:42:25.165Z,100993.95
2018-06-21T00:44:53.661Z,100982.13
2018-06-21T00:47:22.341Z,100982.63
2018-06-21T00:49:50.478Z,100983.13
2018-06-21T00:52:19.264Z,100982.42
2018-06-21T00:54:47.631Z,100983.61
2018-06-21T00:57:15.772Z,100972.49
2018-06-21T00:59:43.895Z,100970.98
2018-06-21T01:02:12.598Z,100966.72
2018-06-21T01:04:41.057Z,100961.08
2018-06-21T01:07:09.518Z,100962.30
2018-06-21T01:09:37.674Z,100947.61
2018-06-21T01:12:06.077Z,100950.13
2018-06-21T01:14:34.538Z,100948.21
2018-06-21T01:17:03.087Z,100939.82
2018-06-21T01:19:31.567Z,100939.99
2018-06-21T01:22:00.042Z,100933.84
2018-06-21T01:24:28.504Z,100935.91
2018-06-21T01:26:56.965Z,100929.05
2018-06-21T01:29:25.449Z,100923.41
2018-06-21T01:31:53.589Z,100923.59
2018-06-21T01:34:21.749Z,100924.25
2018-06-21T01:36:50.233Z,100917.26
2018-06-21T01:39:18.742Z,100915.72
2018-06-21T01:41:46.857Z,100923.55
2018-06-21T01:44:15.365Z,100913.97
2018-06-21T01:46:43.493Z,100919.25
2018-06-21T01:49:11.960Z,100915.82
2018-06-21T01:51:40.098Z,100917.84
2018-06-21T01:54:08.241Z,100914.95
2018-06-21T01:56:36.365Z,100909.84
2018-06-21T01:59:05.043Z,100904.52
2018-06-21T02:01:33.173Z,100910.16
2018-06-21T02:04:01.314Z,100913.09
2018-06-21T02:06:29.451Z,100911.73
2018-06-21T02:08:57.597Z,100903.86
2018-06-21T02:11:25.739Z,100906.41
2018-06-21T02:13:53.882Z,100907.42
2018-06-21T02:16:22.033Z,100899.77
2018-06-21T02:18:50.518Z,100901.97
2018-06-21T02:21:18.662Z,100889.34
2018-06-21T02:23:46.833Z,100886.45
2018-06-21T02:26:14.974Z,100877.39
2018-06-21T02:28:43.456Z,100881.13
2018-06-21T02:31:11.590Z,100875.98
2018-06-21T02:33:39.753Z,100874.41
2018-06-21T02:36:07.902Z,100870.13
2018-06-21T02:38:36.230Z,100864.64
2018-06-21T02:41:04.897Z,100863.59
2018-06-21T02:43:33.061Z,100861.56
2018-06-21T02:46:01.193Z,100857.47
2018-06-21T02:48:29.553Z,100845.34
2018-06-21T02:50:57.662Z,100849.61
2018-06-21T02:53:25.822Z,100832.55
2018-06-21T02:55:54.498Z,100837.00
2018-06-21T02:58:22.906Z,100839.06
2018-06-21T03:00:51.133Z,100825.08
2018-06-21T03:03:19.594Z,100826.62
2018-06-21T03:05:48.084Z,100821.62
2018-06-21T03:08:16.554Z,100814.77
2018-06-21T03:10:45.079Z,100818.33
2018-06-21T03:13:13.534Z,100811.34
2018-06-21T03:15:42.038Z,100808.92
2018-06-21T03:18:10.498Z,100812.66
2018-06-21T03:20:38.642Z,100818.31
2018-06-21T03:23:07.106Z,100809.13
2018-06-21T03:25:35.577Z,100811.34
2018-06-21T03:28:04.061Z,100814.06
2018-06-21T03:30:32.210Z,100812.83
2018-06-21T03:33:00.869Z,100813.34
2018-06-21T03:35:29.012Z,100812.00
2018-06-21T03:37:57.355Z,100811.02
2018-06-21T03:40:25.513Z,100804.22
2018-06-21T03:42:53.971Z,100798.07
2018-06-21T03:45:22.090Z,100792.48
2018-06-21T03:47:50.470Z,100790.84
2018-06-21T03:50:18.969Z,100792.56
2018-06-21T03:52:47.423Z,100784.56
2018-06-21T03:55:15.594Z,100777.92
2018-06-21T03:57:43.737Z,100768.91
2018-06-21T04:00:12.210Z,100768.74
2018-06-21T04:02:40.618Z,100758.89
2018-06-21T04:05:09.124Z,100765.52
2018-06-21T04:07:37.253Z,100764.66
2018-06-21T04:10:05.430Z,100762.98
2018-06-21T04:12:33.941Z,100762.63
2018-06-21T04:15:02.094Z,100768.08
2018-06-21T04:17:30.760Z,100772.02
2018-06-21T04:19:59.721Z,100764.86
2018-06-21T04:22:28.205Z,100770.98
2018-06-21T04:24:56.650Z,100761.96
2018-06-21T04:27:24.771Z,100754.14
2018-06-21T04:29:53.237Z,100755.47
2018-06-21T04:32:21.708Z,100754.45
2018-06-21T04:34:50.017Z,100745.27
2018-06-21T04:37:18.143Z,100745.30
2018-06-21T04:39:47.046Z,100741.20
2018-06-21T04:42:15.493Z,100738.51
2018-06-21T04:44:43.666Z,100737.48
2018-06-21T04:47:12.307Z,100741.08
2018-06-21T04:49:40.770Z,100721.50
2018-06-21T04:52:08.894Z,100717.61
2018-06-21T04:54:37.025Z,100725.78
2018-06-21T04:57:05.697Z,100722.73
2018-06-21T04:59:34.009Z,100721.20
2018-06-21T05:02:02.154Z,100714.36
2018-06-21T05:04:30.585Z,100719.30
2018-06-21T05:06:59.302Z,100725.58
2018-06-21T05:09:27.669Z,100726.78
2018-06-21T05:11:55.785Z,100730.53
2018-06-21T05:14:23.941Z,100721.66
2018-06-21T05:16:52.067Z,100732.39
2018-06-21T05:19:20.201Z,100735.95
2018-06-21T05:21:48.341Z,100729.31
2018-06-21T05:24:16.459Z,100733.57
2018-06-21T05:26:44.916Z,100733.92
2018-06-21T05:29:13.502Z,100727.42
2018-06-21T05:31:41.625Z,100722.99
2018-06-21T05:34:09.750Z,100730.30
2018-06-21T05:36:38.214Z,100737.58
2018-06-21T05:39:08.857Z,100738.66
2018-06-21T05:41:37.318Z,100732.86
2018-06-21T05:44:05.661Z,100724.52
2018-06-21T05:46:34.240Z,100723.16
2018-06-21T05:49:02.569Z,100730.10
2018-06-21T05:51:31.088Z,100731.67
2018-06-21T05:53:59.214Z,100727.59
2018-06-21T05:56:27.331Z,100722.14
2018-06-21T05:58:55.996Z,100728.47
2018-06-21T06:01:24.133Z,100739.57
2018-06-21T06:03:52.757Z,100747.47
2018-06-21T06:06:21.270Z,100749.63
2018-06-21T06:08:49.664Z,100754.24
2018-06-21T06:11:17.977Z,100768.49
2018-06-21T06:13:46.103Z,100760.80
2018-06-21T06:16:14.573Z,100750.36
2018-06-21T06:18:43.041Z,100756.63
2018-06-21T06:21:11.714Z,100763.75
2018-06-21T06:23:40.074Z,100775.47
2018-06-21T06:26:08.406Z,100774.72
2018-06-21T06:28:36.870Z,100789.05
2018-06-21T06:31:05.501Z,100788.20
2018-06-21T06:33:33.833Z,100786.84
2018-06-21T06:36:02.305Z,100787.78
2018-06-21T06:38:30.761Z,100797.95
2018-06-21T06:40:58.868Z,100800.59
2018-06-21T06:43:27.331Z,100805.36
2018-06-21T06:45:55.882Z,100816.64
2018-06-21T06:48:24.081Z,100811.77
2018-06-21T06:50:52.525Z,100820.29
2018-06-21T06:53:20.987Z,100823.40
2018-06-21T06:55:49.152Z,100842.25
2018-06-21T06:58:17.294Z,100822.97
2018-06-21T07:00:45.750Z,100822.33
2018-06-21T07:03:13.868Z,100815.92
2018-06-21T07:05:41.981Z,100824.17
2018-06-21T07:08:10.172Z,100810.39
2018-06-21T07:10:38.805Z,100816.44
2018-06-21T07:13:07.366Z,100812.84
2018-06-21T07:15:35.816Z,100810.32
2018-06-21T07:18:04.286Z,100814.30
2018-06-21T07:20:32.461Z,100819.63
2018-06-21T07:23:01.049Z,100824.52
2018-06-21T07:25:29.433Z,100825.82
2018-06-21T07:27:57.562Z,100828.86
2018-06-21T07:30:26.014Z,100832.06
2018-06-21T07:32:54.557Z,100833.42
2018-06-21T07:35:22.658Z,100848.38
2018-06-21T07:37:51.098Z,100848.54
2018-06-21T07:40:19.229Z,100857.89
2018-06-21T07:42:47.355Z,100859.93
2018-06-21T07:45:15.813Z,100859.93
2018-06-21T07:47:43.946Z,100848.05
2018-06-21T07:50:12.395Z,100856.30
2018-06-21T07:52:40.514Z,100852.59
2018-06-21T07:55:08.625Z,100848.72
2018-06-21T07:57:36.757Z,100849.42
2018-06-21T08:00:05.133Z,100855.30
2018-06-21T08:02:33.273Z,100851.28
2018-06-21T08:05:01.739Z,100851.99
2018-06-21T08:07:30.058Z,100858.27
2018-06-21T08:09:58.190Z,100861.00
2018-06-21T08:12:26.316Z,100858.70
2018-06-21T08:14:54.693Z,100862.68
2018-06-21T08:17:23.134Z,100864.34
2018-06-21T08:19:51.266Z,100864.34
2018-06-21T08:22:19.389Z,100873.63
2018-06-21T08:24:47.536Z,100877.91
2018-06-21T08:27:15.866Z,100875.39
2018-06-21T08:29:43.994Z,100880.27
2018-06-21T08:32:12.165Z,100880.44
2018-06-21T08:34:40.458Z,100878.73
2018-06-21T08:37:08.570Z,100878.22
2018-06-21T08:39:36.897Z,100879.62
2018-06-21T08:42:05.042Z,100899.27
2018-06-21T08:44:33.710Z,100896.50
2018-06-21T08:47:01.862Z,100893.10
2018-06-21T08:49:30.014Z,100892.80
2018-06-21T08:51:58.517Z,100895.80
2018-06-21T08:54:26.825Z,100895.58
2018-06-21T08:56:55.287Z,100892.70
2018-06-21T08:59:23.434Z,100900.80
2018-06-21T09:01:51.893Z,100893.82
2018-06-21T09:04:20.033Z,100900.11
2018-06-21T09:06:48.154Z,100906.97
2018-06-21T09:09:16.301Z,100909.17
2018-06-21T09:11:44.425Z,100913.31
2018-06-21T09:14:12.566Z,100917.81
2018-06-21T09:16:40.910Z,100924.94
2018-06-21T09:19:09.384Z,100921.31
2018-06-21T09:21:37.709Z,100924.80
2018-06-21T09:24:06.230Z,100923.26
2018-06-21T09:26:34.697Z,100933.68
2018-06-21T09:29:02.845Z,100922.55
2018-06-21T09:31:30.973Z,100940.35
2018-06-21T09:33:59.105Z,100940.11
2018-06-21T09:36:29.729Z,100948.96
2018-06-21T09:39:03.645Z,100946.39
2018-06-21T09:41:37.217Z,100950.79
2018-06-21T09:44:41.950Z,100952.53
2018-06-21T09:47:15.737Z,100955.73
2018-06-21T09:49:44.222Z,100949.55
2018-06-21T09:52:12.352Z,100950.39
2018-06-21T09:54:40.817Z,100946.48
2018-06-21T09:57:09.273Z,100948.83
2018-06-21T09:59:37.427Z,100948.80
2018-06-21T10:02:06.098Z,100953.91
2018-06-21T10:04:34.242Z,100959.13
2018-06-21T10:07:02.377Z,100960.28
2018-06-21T10:09:30.927Z,100957.20
2018-06-21T10:11:59.377Z,100976.88
2018-06-21T10:14:27.576Z,101005.89
2018-06-21T10:16:55.697Z,101018.48
2018-06-21T10:19:24.186Z,101021.20
2018-06-21T10:21:52.361Z,101041.26
2018-06-21T10:24:20.475Z,101040.95
2018-06-21T10:26:48.634Z,101037.72
2018-06-21T10:29:17.270Z,101028.48
2018-06-21T10:31:45.998Z,101035.02
2018-06-21T10:34:14.145Z,101029.44
2018-06-21T10:36:42.294Z,101024.42
2018-06-21T10:39:11.880Z,101038.38
2018-06-21T10:41:40.473Z,101034.31
2018-06-21T10:44:08.956Z,101034.81
2018-06-21T10:46:37.233Z,101029.16
2018-06-21T10:49:05.405Z,101016.25
2018-06-21T10:51:34.094Z,101017.28
2018-06-21T10:54:02.662Z,101019.13
2018-06-21T10:56:31.137Z,101026.31
2018-06-21T10:58:59.309Z,101023.45
2018-06-21T11:01:27.789Z,101023.98
2018-06-21T11:03:56.329Z,101030.08
2018-06-21T11:06:25.189Z,101038.20
2018-06-21T11:08:53.662Z,101039.67
2018-06-21T11:11:22.439Z,101042.36
2018-06-21T11:13:50.706Z,101026.96
2018-06-21T11:16:18.840Z,101033.21
2018-06-21T11:18:47.041Z,101038.98
2018-06-21T11:21:15.542Z,101037.80
2018-06-21T11:23:44.001Z,101042.27
2018-06-21T11:26:12.520Z,101040.67
2018-06-21T11:28:40.985Z,101034.06
2018-06-21T11:31:09.118Z,101046.78
2018-06-21T11:33:37.249Z,101041.77
2018-06-21T11:36:05.546Z,101047.11
2018-06-21T11:38:34.006Z,101054.09
2018-06-21T11:41:02.481Z,101060.56
2018-06-21T11:43:30.938Z,101057.95
2018-06-21T11:45:59.421Z,101085.73
2018-06-21T11:48:27.581Z,101089.88
2018-06-21T11:50:55.793Z,101101.39
2018-06-21T11:53:24.477Z,101121.61
2018-06-21T11:55:52.620Z,101118.28
2018-06-21T11:58:20.770Z,101140.89
2018-06-21T12:00:49.232Z,101124.23
2018-06-21T12:03:17.497Z,101137.23
2018-06-21T12:05:46.446Z,101143.38
2018-06-21T12:08:14.598Z,101143.20
2018-06-21T12:10:43.085Z,101156.50
2018-06-21T12:13:11.765Z,101167.62
2018-06-21T12:15:39.946Z,101202.63
2018-06-21T12:18:08.417Z,101203.11
2018-06-21T12:20:36.538Z,101203.14
2018-06-21T12:23:04.718Z,101216.35
2018-06-21T12:25:33.450Z,101209.41
2018-06-21T12:28:01.934Z,101209.81
2018-06-21T12:30:30.077Z,101217.06
2018-06-21T12:32:58.614Z,101206.48
2018-06-21T12:35:27.166Z,101215.72
2018-06-21T12:37:56.638Z,101203.48
2018-06-21T12:40:25.330Z,101243.22
2018-06-21T12:42:53.814Z,101244.65
2018-06-21T12:45:22.018Z,101252.72
2018-06-21T12:47:50.338Z,101235.38
2018-06-21T12:50:19.053Z,101247.00
2018-06-21T12:52:47.397Z,101249.41
2018-06-21T12:55:15.850Z,101246.53
2018-06-21T12:57:44.209Z,101250.06
2018-06-21T13:00:12.641Z,101253.50
2018-06-21T13:02:40.866Z,101239.98
2018-06-21T13:05:09.007Z,101252.24
2018-06-21T13:07:37.144Z,101250.03
2018-06-21T13:10:16.762Z,101244.47
2018-06-21T13:13:01.734Z,101236.48
2018-06-21T13:15:29.885Z,101237.56
2018-06-21T13:17:58.590Z,101228.52
2018-06-21T13:20:27.077Z,101234.75
2018-06-21T13:22:55.558Z,101240.66
2018-06-21T13:25:23.714Z,101239.52
2018-06-21T13:27:51.856Z,101244.44
2018-06-21T13:30:20.730Z,101244.77
2018-06-21T13:32:48.902Z,101248.64
2018-06-21T13:35:17.369Z,101245.69
2018-06-21T13:37:45.505Z,101249.33
2018-06-21T13:40:13.953Z,101255.92
2018-06-21T13:42:42.807Z,101247.30
2018-06-21T13:45:11.254Z,101255.91
2018-06-21T13:47:39.733Z,101279.84
2018-06-21T13:50:08.442Z,101268.90
2018-06-21T13:52:36.594Z,101281.41
2018-06-21T13:55:05.047Z,101270.28
2018-06-21T13:57:33.206Z,101269.98
2018-06-21T14:00:01.319Z,101272.70
2018-06-21T14:02:29.466Z,101261.69
2018-06-21T14:04:57.929Z,101269.97
2018-06-21T14:07:26.628Z,101286.05
2018-06-21T14:09:54.937Z,101291.53
2018-06-21T14:12:23.432Z,101283.56
2018-06-21T14:14:51.917Z,101280.52
2018-06-21T14:17:20.570Z,101290.03
2018-06-21T14:19:49.030Z,101279.12
2018-06-21T14:22:17.177Z,101290.87
2018-06-21T14:24:45.337Z,101278.27
2018-06-21T14:27:13.487Z,101295.78
2018-06-21T14:29:41.646Z,101284.05
2018-06-21T14:32:09.789Z,101281.77
2018-06-21T14:34:38.241Z,101287.41
2018-06-21T14:37:06.438Z,101306.00
2018-06-21T14:39:34.902Z,101297.42
2018-06-21T14:42:03.079Z,101297.17
2018-06-21T14:44:31.210Z,101299.98
2018-06-21T14:46:59.698Z,101315.23
2018-06-21T14:49:27.854Z,101323.79
2018-06-21T14:51:56.329Z,101343.59
2018-06-21T14:54:24.488Z,101370.81
2018-06-21T14:56:53.350Z,101379.25
2018-06-21T14:59:23.222Z,101374.30
2018-06-21T15:01:53.494Z,101379.47
2018-06-21T15:04:24.301Z,101381.75
2018-06-21T15:06:52.775Z,101385.47
2018-06-21T15:09:21.266Z,101374.09
2018-06-21T15:11:49.730Z,101379.34
2018-06-21T15:14:18.066Z,101389.09
2018-06-21T15:16:46.214Z,101371.67
2018-06-21T15:19:14.706Z,101377.59
2018-06-21T15:21:43.070Z,101379.89
2018-06-21T15:24:11.214Z,101383.49
2018-06-21T15:26:39.682Z,101386.42
2018-06-21T15:29:08.218Z,101385.50
2018-06-21T15:31:36.497Z,101384.83
2018-06-21T15:34:04.645Z,101387.04
2018-06-21T15:36:33.351Z,101376.75
2018-06-21T15:39:07.067Z,101381.72
2018-06-21T15:41:35.558Z,101388.75
2018-06-21T15:44:03.952Z,101393.52
2018-06-21T15:46:32.473Z,101405.11
2018-06-21T15:49:00.947Z,101416.42
2018-06-21T15:51:29.422Z,101414.72
2018-06-21T15:53:57.765Z,101411.02
2018-06-21T15:56:26.221Z,101412.51
2018-06-21T15:58:54.402Z,101417.67
2018-06-21T16:01:22.870Z,101415.31
2018-06-21T16:03:51.530Z,101426.30
2018-06-21T16:06:19.677Z,101425.70
2018-06-21T16:08:48.318Z,101430.45
2018-06-21T16:11:16.633Z,101426.13
2018-06-21T16:13:45.107Z,101431.66
2018-06-21T16:16:13.582Z,101431.70
2018-06-21T16:18:41.754Z,101438.09
2018-06-21T16:21:09.918Z,101435.44
2018-06-21T16:23:38.756Z,101440.21
2018-06-21T16:26:07.250Z,101436.98
2018-06-21T16:28:35.768Z,101442.89
2018-06-21T16:31:03.982Z,101443.99
2018-06-21T16:33:32.192Z,101455.58
2018-06-21T16:36:00.498Z,101464.52
2018-06-21T16:38:28.642Z,101465.47
2018-06-21T16:40:57.202Z,101465.11
2018-06-21T16:43:25.613Z,101461.72
2018-06-21T16:45:54.070Z,101458.09
2018-06-21T16:48:22.567Z,101458.65
2018-06-21T16:50:50.703Z,101455.75
2018-06-21T16:53:19.026Z,101458.55
2018-06-21T16:55:47.498Z,101461.11
2018-06-21T16:58:15.845Z,101453.83
2018-06-21T17:00:44.085Z,101457.20
2018-06-21T17:03:12.607Z,101450.64
2018-06-21T17:05:40.735Z,101453.53
2018-06-21T17:08:09.406Z,101456.56
2018-06-21T17:10:37.866Z,101450.92
2018-06-21T17:13:05.994Z,101452.08
2018-06-21T17:15:34.538Z,101457.94
2018-06-21T17:18:02.666Z,101454.99
2018-06-21T17:20:31.169Z,101467.37
2018-06-21T17:22:59.630Z,101468.97
2018-06-21T17:25:27.739Z,101468.34
2018-06-21T17:27:56.197Z,101465.84
2018-06-21T17:30:24.772Z,101477.85
2018-06-21T17:32:53.321Z,101469.81
2018-06-21T17:35:21.842Z,101469.00
2018-06-21T17:37:49.973Z,101469.14
2018-06-21T17:40:18.295Z,101466.84
2018-06-21T17:42:46.401Z,101469.03
2018-06-21T17:45:14.951Z,101478.58
2018-06-21T17:47:43.266Z,101470.13
2018-06-21T17:50:11.701Z,101466.31
2018-06-21T17:52:39.833Z,101473.80
2018-06-21T17:55:07.987Z,101477.03
2018-06-21T17:57:36.436Z,101471.02
2018-06-21T18:00:05.150Z,101466.78
2018-06-21T18:02:33.601Z,101480.02
2018-06-21T18:05:01.729Z,101469.11
2018-06-21T18:07:29.934Z,101480.58
2018-06-21T18:09:58.609Z,101478.89
2018-06-21T18:12:27.039Z,101479.21
2018-06-21T18:14:55.357Z,101497.90
2018-06-21T18:17:23.929Z,101490.32
2018-06-21T18:19:52.621Z,101505.17
2018-06-21T18:22:21.101Z,101494.98
2018-06-21T18:24:49.648Z,101497.63
2018-06-21T18:27:17.785Z,101506.41
2018-06-21T18:29:46.240Z,101505.38
2018-06-21T18:32:14.685Z,101504.19
2018-06-21T18:34:43.141Z,101503.50
2018-06-21T18:37:13.186Z,101510.67
2018-06-21T18:39:41.653Z,101511.80
2018-06-21T18:42:10.102Z,101511.20
2018-06-21T18:44:38.617Z,101514.38
2018-06-21T18:47:07.181Z,101516.14
2018-06-21T18:49:35.905Z,101513.41
2018-06-21T18:52:04.414Z,101521.53
2018-06-21T18:54:32.571Z,101538.53
2018-06-21T18:57:00.750Z,101546.41
2018-06-21T18:59:29.065Z,101538.03
2018-06-21T19:01:57.293Z,101541.69
2018-06-21T19:04:25.446Z,101540.06
2018-06-21T19:06:59.230Z,101537.09
2018-06-21T19:09:32.709Z,101541.75
2018-06-21T19:12:04.135Z,101540.44
2018-06-21T19:14:32.444Z,101545.16
2018-06-21T19:17:00.562Z,101546.92
2018-06-21T19:19:28.753Z,101544.78
2018-06-21T19:21:57.053Z,101551.20
2018-06-21T19:24:25.365Z,101553.99
2018-06-21T19:26:53.837Z,101550.91
2018-06-21T19:29:22.305Z,101545.75
2018-06-21T19:31:50.418Z,101542.13
2018-06-21T19:34:18.897Z,101542.45
2018-06-21T19:36:47.609Z,101539.12
2018-06-21T19:39:16.286Z,101543.34
2018-06-21T19:41:44.746Z,101542.63
2018-06-21T19:44:12.850Z,101553.81
2018-06-21T19:46:40.970Z,101543.22
2018-06-21T19:49:09.288Z,101551.07
2018-06-21T19:51:37.545Z,101555.45
2018-06-21T19:54:06.214Z,101553.89
2018-06-21T19:56:34.869Z,101554.70
2018-06-21T19:59:03.558Z,101555.03
2018-06-21T20:01:31.717Z,101553.80
2018-06-21T20:03:59.849Z,101558.36
2018-06-21T20:06:28.314Z,101570.13
2018-06-21T20:08:56.427Z,101563.64
2018-06-21T20:11:30.969Z,101563.77
2018-06-21T20:13:59.622Z,101575.16
2018-06-21T20:16:27.945Z,101574.02
2018-06-21T20:18:56.393Z,101578.91
2018-06-21T20:21:24.709Z,101580.58
2018-06-21T20:23:52.861Z,101579.17
2018-06-21T20:26:21.677Z,101578.03
2018-06-21T20:28:49.782Z,101582.23
2018-06-21T20:31:18.734Z,101582.37
2018-06-21T20:33:47.681Z,101577.80
2018-06-21T20:36:16.517Z,101573.48
2018-06-21T20:38:44.968Z,101573.10
2018-06-21T20:41:13.217Z,101571.69
2018-06-21T20:43:41.367Z,101575.21
2018-06-21T20:46:09.502Z,101569.74
2018-06-21T20:48:37.649Z,101572.95
2018-06-21T20:51:06.257Z,101572.06
2018-06-21T20:53:34.394Z,101567.89
2018-06-21T20:56:02.846Z,101565.70
2018-06-21T20:58:31.193Z,101572.27
2018-06-21T21:00:59.560Z,101569.41
2018-06-21T21:03:28.013Z,101571.58
2018-06-21T21:05:56.457Z,101564.00
2018-06-21T21:08:24.851Z,101568.63
2018-06-21T21:10:52.975Z,101572.41
2018-06-21T21:13:21.130Z,101569.56
2018-06-21T21:15:49.597Z,101575.15
2018-06-21T21:18:18.135Z,101572.45
2018-06-21T21:20:46.793Z,101577.08
2018-06-21T21:23:15.051Z,101579.05
2018-06-21T21:25:43.681Z,101574.47
2018-06-21T21:28:11.816Z,101578.02
2018-06-21T21:30:40.277Z,101584.21
2018-06-21T21:33:08.396Z,101584.91
2018-06-21T21:35:36.742Z,101577.51
2018-06-21T21:38:05.440Z,101576.66
2018-06-21T21:40:33.549Z,101580.35
2018-06-21T21:43:01.850Z,101580.27
2018-06-21T21:45:30.289Z,101577.19
2018-06-21T21:47:58.397Z,101578.64
2018-06-21T21:50:26.802Z,101569.09
2018-06-21T21:52:55.099Z,101571.25
2018-06-21T21:55:23.201Z,101574.33
2018-06-21T21:57:51.677Z,101568.74
2018-06-21T22:00:55.549Z,101564.86
2018-06-21T22:03:23.896Z,101569.56
2018-06-21T22:05:52.358Z,101570.45
2018-06-21T22:08:20.729Z,101571.69
2018-06-21T22:10:49.645Z,101563.98
2018-06-21T22:13:18.746Z,101567.80
2018-06-21T22:15:46.995Z,101565.59
2018-06-21T22:18:15.643Z,101568.02
2018-06-21T22:20:44.106Z,101580.35
2018-06-21T22:23:12.254Z,101573.50
2018-06-21T22:25:40.578Z,101566.67
2018-06-21T22:28:08.742Z,101564.45
2018-06-21T22:30:37.221Z,101566.48
2018-06-21T22:33:05.731Z,101560.24
2018-06-21T22:35:33.836Z,101558.78
2018-06-21T22:38:02.301Z,101555.50
2018-06-21T22:40:30.402Z,101560.78
2018-06-21T22:42:58.521Z,101555.78
2018-06-21T22:45:27.205Z,101552.50
2018-06-21T22:47:55.994Z,101551.73
2018-06-21T22:50:24.100Z,101552.23
2018-06-21T22:52:52.574Z,101544.61
2018-06-21T22:55:20.706Z,101550.88
2018-06-21T22:57:48.818Z,101550.00
2018-06-21T23:00:17.601Z,101552.50
2018-06-21T23:02:46.389Z,101541.22
2018-06-21T23:05:14.725Z,101541.60
2018-06-21T23:07:42.834Z,101544.41
2018-06-21T23:10:11.466Z,101539.48
2018-06-21T23:12:39.564Z,101539.13
2018-06-21T23:15:07.686Z,101542.41
2018-06-21T23:17:35.812Z,101542.48
2018-06-21T23:20:04.385Z,101539.21
2018-06-21T23:22:32.830Z,101530.16
2018-06-21T23:25:01.526Z,101535.44
2018-06-21T23:27:29.762Z,101525.27
2018-06-21T23:29:57.858Z,101534.31
2018-06-21T23:32:25.982Z,101529.39
2018-06-21T23:34:54.098Z,101524.00
2018-06-21T23:37:22.225Z,101522.07
2018-06-21T23:39:50.342Z,101522.95
2018-06-21T23:42:18.490Z,101525.92
2018-06-21T23:44:46.589Z,101523.80
2018-06-21T23:47:14.705Z,101518.91
2018-06-21T23:49:42.809Z,101522.07
2018-06-21T23:52:10.953Z,101510.91
2018-06-21T23:54:39.394Z,101510.44
2018-06-21T23:57:07.745Z,101515.33
2018-06-21T23:59:36.401Z,101513.52
